createdAt,value
2017-05-30T00:00:05.632Z,0
2017-05-30T00:01:06.313Z,0
2017-05-30T00:02:07.012Z,0
2017-05-30T00:03:07.690Z,0
2017-05-30T00:04:08.364Z,0
2017-05-30T00:05:09.037Z,0
2017-05-30T00:06:09.710Z,0
2017-05-30T00:07:10.380Z,0
2017-05-30T00:08:11.047Z,0
2017-05-30T00:09:11.705Z,0
2017-05-30T00:10:12.379Z,0
2017-05-30T00:11:13.070Z,0
2017-05-30T00:12:13.730Z,0
2017-05-30T00:13:14.389Z,0
2017-05-30T00:14:15.059Z,0
2017-05-30T00:15:15.717Z,0
2017-05-30T00:16:16.391Z,0
2017-05-30T00:17:17.048Z,0
2017-05-30T00:18:17.711Z,0
2017-05-30T00:19:18.394Z,0
2017-05-30T00:20:19.073Z,0
2017-05-30T00:21:19.753Z,0
2017-05-30T00:22:20.418Z,0
2017-05-30T00:23:21.102Z,0
2017-05-30T00:24:21.761Z,0
2017-05-30T00:25:22.426Z,0
2017-05-30T00:26:23.119Z,0
2017-05-30T00:27:23.769Z,0
2017-05-30T00:28:24.432Z,0
2017-05-30T00:29:25.119Z,0
2017-05-30T00:30:25.799Z,0
2017-05-30T00:31:26.464Z,0
2017-05-30T00:32:27.176Z,0
2017-05-30T00:33:27.833Z,0
2017-05-30T00:34:28.528Z,0
2017-05-30T00:35:29.198Z,0
2017-05-30T00:36:29.873Z,0
2017-05-30T00:37:30.566Z,0
2017-05-30T00:38:31.224Z,0
2017-05-30T00:39:31.946Z,0
2017-05-30T00:40:32.641Z,0
2017-05-30T00:41:33.321Z,0
2017-05-30T00:42:33.987Z,0
2017-05-30T00:43:34.684Z,0
2017-05-30T00:44:35.355Z,0
2017-05-30T00:45:36.033Z,0
2017-05-30T00:46:36.689Z,0
2017-05-30T00:47:37.374Z,0
2017-05-30T00:48:38.028Z,0
2017-05-30T00:49:38.699Z,0
2017-05-30T00:50:39.370Z,0
2017-05-30T00:51:40.045Z,0
2017-05-30T00:52:40.709Z,0
2017-05-30T00:53:41.394Z,0
2017-05-30T00:54:42.061Z,0
2017-05-30T00:55:42.737Z,0
2017-05-30T00:56:43.404Z,0
2017-05-30T00:57:44.077Z,0
2017-05-30T00:58:44.740Z,0
2017-05-30T00:59:45.425Z,0
2017-05-30T01:00:46.090Z,0
2017-05-30T01:01:46.766Z,0
2017-05-30T01:02:47.435Z,0
2017-05-30T01:03:48.102Z,0
2017-05-30T01:04:48.782Z,0
2017-05-30T01:05:49.473Z,0
2017-05-30T01:06:50.142Z,0
2017-05-30T01:07:50.817Z,0
2017-05-30T01:08:51.489Z,0
2017-05-30T01:09:52.159Z,0
2017-05-30T01:10:52.835Z,0
2017-05-30T01:11:53.498Z,0
2017-05-30T01:12:54.171Z,0
2017-05-30T01:13:54.835Z,0
2017-05-30T01:14:55.509Z,0
2017-05-30T01:15:56.182Z,0
2017-05-30T01:16:56.851Z,0
2017-05-30T01:17:57.527Z,0
2017-05-30T01:18:58.201Z,0
2017-05-30T01:19:58.881Z,0
2017-05-30T01:20:59.552Z,0
2017-05-30T01:22:00.213Z,0
2017-05-30T01:23:00.872Z,0
2017-05-30T01:24:01.535Z,0
2017-05-30T01:25:02.256Z,0
2017-05-30T01:26:02.946Z,0
2017-05-30T01:27:03.616Z,0
2017-05-30T01:28:04.282Z,0
2017-05-30T01:29:04.956Z,0
2017-05-30T01:30:05.637Z,0
2017-05-30T01:31:06.312Z,0
2017-05-30T01:32:06.976Z,0
2017-05-30T01:33:07.636Z,0
2017-05-30T01:34:08.317Z,0
2017-05-30T01:35:08.977Z,0
2017-05-30T01:36:09.642Z,0
2017-05-30T01:37:10.337Z,0
2017-05-30T01:38:11.007Z,0
2017-05-30T01:39:11.679Z,0
2017-05-30T01:40:12.347Z,0
2017-05-30T01:41:13.023Z,0
2017-05-30T01:42:13.696Z,0
2017-05-30T01:43:14.353Z,0
2017-05-30T01:44:15.032Z,0
2017-05-30T01:45:15.706Z,0
2017-05-30T01:46:16.380Z,0
2017-05-30T01:47:17.063Z,0
2017-05-30T01:48:17.769Z,0
2017-05-30T01:49:18.464Z,0
2017-05-30T01:50:19.134Z,0
2017-05-30T01:51:19.800Z,0
2017-05-30T01:52:20.485Z,0
2017-05-30T01:53:21.139Z,0
2017-05-30T01:54:21.840Z,0
2017-05-30T01:55:22.528Z,0
2017-05-30T01:56:23.182Z,0
2017-05-30T01:57:23.853Z,0
2017-05-30T01:58:31.422Z,0
2017-05-30T01:59:32.099Z,0
2017-05-30T02:00:32.767Z,0
2017-05-30T02:01:33.436Z,0
2017-05-30T02:02:34.124Z,0
2017-05-30T02:03:34.787Z,0
2017-05-30T02:04:35.458Z,0
2017-05-30T02:05:36.124Z,0
2017-05-30T02:06:36.791Z,0
2017-05-30T02:07:37.454Z,0
2017-05-30T02:08:38.120Z,0
2017-05-30T02:09:38.784Z,0
2017-05-30T02:10:39.497Z,0
2017-05-30T02:11:40.169Z,0
2017-05-30T02:12:40.842Z,0
2017-05-30T02:13:41.504Z,0
2017-05-30T02:14:42.168Z,0
2017-05-30T02:15:42.836Z,0
2017-05-30T02:16:43.508Z,0
2017-05-30T02:17:44.239Z,0
2017-05-30T02:18:44.912Z,0
2017-05-30T02:19:45.588Z,0
2017-05-30T02:20:46.257Z,0
2017-05-30T02:21:46.929Z,0
2017-05-30T02:22:47.599Z,0
2017-05-30T02:23:48.251Z,0
2017-05-30T02:24:48.942Z,0
2017-05-30T02:25:49.652Z,0
2017-05-30T02:26:50.308Z,0
2017-05-30T02:27:50.984Z,0
2017-05-30T02:28:51.697Z,0
2017-05-30T02:29:52.378Z,0
2017-05-30T02:30:53.083Z,0
2017-05-30T02:31:53.750Z,0
2017-05-30T02:32:54.418Z,0
2017-05-30T02:33:55.074Z,0
2017-05-30T02:34:55.739Z,0
2017-05-30T02:35:56.416Z,0
2017-05-30T02:36:57.081Z,0
2017-05-30T02:37:57.751Z,0
2017-05-30T02:38:58.433Z,0
2017-05-30T02:39:59.093Z,0
2017-05-30T02:40:59.763Z,0
2017-05-30T02:42:00.447Z,0
2017-05-30T02:43:01.111Z,0
2017-05-30T02:44:01.771Z,0
2017-05-30T02:45:02.426Z,0
2017-05-30T02:46:03.094Z,0
2017-05-30T02:47:03.760Z,0
2017-05-30T02:48:04.426Z,0
2017-05-30T02:49:05.100Z,0
2017-05-30T02:50:05.764Z,0
2017-05-30T02:51:06.441Z,0
2017-05-30T02:52:07.122Z,0
2017-05-30T02:53:07.810Z,0
2017-05-30T02:54:08.472Z,0
2017-05-30T02:55:09.143Z,0
2017-05-30T02:56:09.808Z,5
2017-05-30T02:57:10.488Z,5
2017-05-30T02:58:11.160Z,5
2017-05-30T02:59:11.828Z,5
2017-05-30T03:00:12.486Z,5
2017-05-30T03:01:13.167Z,5
2017-05-30T03:02:13.844Z,5
2017-05-30T03:03:14.515Z,5
2017-05-30T03:04:15.201Z,5
2017-05-30T03:05:15.856Z,5
2017-05-30T03:06:16.534Z,5
2017-05-30T03:07:17.200Z,5
2017-05-30T03:08:17.896Z,10
2017-05-30T03:09:18.582Z,10
2017-05-30T03:10:19.270Z,10
2017-05-30T03:11:19.948Z,10
2017-05-30T03:12:20.624Z,10
2017-05-30T03:13:21.293Z,10
2017-05-30T03:14:21.968Z,10
2017-05-30T03:15:22.671Z,15
2017-05-30T03:16:23.348Z,15
2017-05-30T03:17:24.042Z,15
2017-05-30T03:18:24.707Z,15
2017-05-30T03:19:25.375Z,15
2017-05-30T03:20:26.055Z,20
2017-05-30T03:21:26.734Z,20
2017-05-30T03:22:27.399Z,20
2017-05-30T03:23:28.074Z,20
2017-05-30T03:24:28.729Z,25
2017-05-30T03:25:29.426Z,25
2017-05-30T03:26:30.098Z,25
2017-05-30T03:27:30.776Z,30
2017-05-30T03:28:31.460Z,30
2017-05-30T03:29:32.181Z,35
2017-05-30T03:30:32.869Z,35
2017-05-30T03:31:33.567Z,40
2017-05-30T03:32:34.232Z,45
2017-05-30T03:33:34.899Z,50
2017-05-30T03:34:35.582Z,55
2017-05-30T03:35:36.254Z,60
2017-05-30T03:36:36.945Z,75
2017-05-30T03:37:37.621Z,85
2017-05-30T03:38:38.380Z,85
2017-05-30T03:39:39.048Z,70
2017-05-30T03:40:39.721Z,45
2017-05-30T03:41:40.417Z,35
2017-05-30T03:42:41.088Z,20
2017-05-30T03:43:41.759Z,15
2017-05-30T03:44:42.423Z,10
2017-05-30T03:45:43.088Z,10
2017-05-30T03:46:43.761Z,15
2017-05-30T03:47:44.425Z,15
2017-05-30T03:48:45.094Z,20
2017-05-30T03:49:45.767Z,20
2017-05-30T03:50:46.445Z,15
2017-05-30T03:51:47.107Z,10
2017-05-30T03:52:47.789Z,10
2017-05-30T03:53:48.461Z,5
2017-05-30T03:54:49.136Z,5
2017-05-30T03:55:49.793Z,0
2017-05-30T03:56:50.518Z,0
2017-05-30T03:57:51.187Z,0
2017-05-30T03:58:51.880Z,0
2017-05-30T03:59:52.550Z,0
2017-05-30T04:00:53.226Z,0
2017-05-30T04:01:53.924Z,0
2017-05-30T04:02:54.582Z,0
2017-05-30T04:03:55.273Z,0
2017-05-30T04:04:55.961Z,0
2017-05-30T04:05:56.631Z,0
2017-05-30T04:06:57.302Z,0
2017-05-30T04:07:57.988Z,0
2017-05-30T04:08:58.663Z,0
2017-05-30T04:09:59.339Z,0
2017-05-30T04:11:00.011Z,0
2017-05-30T04:12:00.674Z,0
2017-05-30T04:13:01.346Z,0
2017-05-30T04:14:02.007Z,0
2017-05-30T04:15:02.670Z,0
2017-05-30T04:16:03.335Z,0
2017-05-30T04:17:04.000Z,0
2017-05-30T04:18:04.678Z,0
2017-05-30T04:19:05.349Z,0
2017-05-30T04:20:06.015Z,0
2017-05-30T04:21:06.699Z,5
2017-05-30T04:22:07.364Z,5
2017-05-30T04:23:08.024Z,5
2017-05-30T04:24:08.696Z,5
2017-05-30T04:25:09.375Z,5
2017-05-30T04:26:10.046Z,5
2017-05-30T04:27:10.737Z,5
2017-05-30T04:28:11.415Z,5
2017-05-30T04:29:12.074Z,5
2017-05-30T04:30:12.766Z,5
2017-05-30T04:31:13.439Z,5
2017-05-30T04:32:14.133Z,5
2017-05-30T04:33:14.808Z,5
2017-05-30T04:34:15.490Z,5
2017-05-30T04:35:16.136Z,10
2017-05-30T04:36:16.856Z,10
2017-05-30T04:37:17.516Z,10
2017-05-30T04:38:18.174Z,10
2017-05-30T04:39:18.835Z,10
2017-05-30T04:40:19.521Z,10
2017-05-30T04:41:20.246Z,10
2017-05-30T04:42:20.913Z,10
2017-05-30T04:43:21.753Z,10
2017-05-30T04:44:22.549Z,10
2017-05-30T04:45:23.288Z,10
2017-05-30T04:46:23.952Z,15
2017-05-30T04:47:24.633Z,15
2017-05-30T04:48:26.031Z,15
2017-05-30T04:49:28.508Z,15
2017-05-30T04:50:31.233Z,15
2017-05-30T04:51:33.825Z,15
2017-05-30T04:52:36.020Z,15
2017-05-30T04:53:36.761Z,15
2017-05-30T04:54:37.485Z,20
2017-05-30T04:55:38.142Z,20
2017-05-30T04:56:38.815Z,20
2017-05-30T04:57:39.477Z,20
2017-05-30T04:58:40.150Z,20
2017-05-30T04:59:40.821Z,20
2017-05-30T05:00:41.554Z,25
2017-05-30T05:01:42.243Z,25
2017-05-30T05:02:42.916Z,25
2017-05-30T05:03:43.593Z,30
2017-05-30T05:04:44.269Z,30
2017-05-30T05:05:44.935Z,30
2017-05-30T05:06:45.598Z,35
2017-05-30T05:07:46.261Z,35
2017-05-30T05:08:46.924Z,40
2017-05-30T05:09:47.597Z,45
2017-05-30T05:10:48.356Z,50
2017-05-30T05:11:49.040Z,55
2017-05-30T05:12:49.738Z,60
2017-05-30T05:13:50.402Z,65
2017-05-30T05:14:51.064Z,70
2017-05-30T05:15:51.737Z,75
2017-05-30T05:16:52.401Z,80
2017-05-30T05:17:53.067Z,80
2017-05-30T05:18:53.732Z,90
2017-05-30T05:19:54.407Z,95
2017-05-30T05:20:55.092Z,100
2017-05-30T05:21:55.770Z,105
2017-05-30T05:22:56.476Z,110
2017-05-30T05:23:57.168Z,115
2017-05-30T05:24:57.837Z,120
2017-05-30T05:25:58.497Z,130
2017-05-30T05:26:59.174Z,135
2017-05-30T05:27:59.837Z,135
2017-05-30T05:29:00.519Z,140
2017-05-30T05:30:01.297Z,145
2017-05-30T05:31:01.985Z,145
2017-05-30T05:32:02.648Z,150
2017-05-30T05:33:03.324Z,145
2017-05-30T05:34:04.007Z,145
2017-05-30T05:35:04.676Z,135
2017-05-30T05:36:05.342Z,140
2017-05-30T05:37:06.014Z,140
2017-05-30T05:38:06.692Z,130
2017-05-30T05:39:07.369Z,115
2017-05-30T05:40:08.087Z,110
2017-05-30T05:41:08.752Z,105
2017-05-30T05:42:09.407Z,105
2017-05-30T05:43:10.085Z,110
2017-05-30T05:44:10.750Z,105
2017-05-30T05:45:11.428Z,100
2017-05-30T05:46:12.106Z,95
2017-05-30T05:47:12.776Z,90
2017-05-30T05:48:13.461Z,90
2017-05-30T05:49:14.147Z,100
2017-05-30T05:50:14.852Z,115
2017-05-30T05:51:15.512Z,120
2017-05-30T05:52:16.191Z,125
2017-05-30T05:53:16.866Z,120
2017-05-30T05:54:17.534Z,105
2017-05-30T05:55:18.226Z,95
2017-05-30T05:56:18.903Z,90
2017-05-30T05:57:19.565Z,95
2017-05-30T05:58:20.237Z,85
2017-05-30T05:59:20.901Z,80
2017-05-30T06:00:21.567Z,65
2017-05-30T06:01:22.238Z,50
2017-05-30T06:02:22.895Z,50
2017-05-30T06:03:23.568Z,50
2017-05-30T06:04:24.241Z,55
2017-05-30T06:05:24.915Z,65
2017-05-30T06:06:25.589Z,70
2017-05-30T06:07:26.278Z,60
2017-05-30T06:08:26.949Z,55
2017-05-30T06:09:27.634Z,60
2017-05-30T06:10:28.306Z,65
2017-05-30T06:11:28.976Z,85
2017-05-30T06:12:29.663Z,100
2017-05-30T06:13:30.333Z,105
2017-05-30T06:14:31.022Z,105
2017-05-30T06:15:31.690Z,95
2017-05-30T06:16:32.365Z,80
2017-05-30T06:17:33.039Z,70
2017-05-30T06:18:33.696Z,55
2017-05-30T06:19:34.358Z,50
2017-05-30T06:20:35.029Z,45
2017-05-30T06:21:35.688Z,40
2017-05-30T06:22:36.343Z,35
2017-05-30T06:23:37.007Z,30
2017-05-30T06:24:37.665Z,30
2017-05-30T06:25:38.340Z,30
2017-05-30T06:26:39.012Z,35
2017-05-30T06:27:39.689Z,35
2017-05-30T06:28:40.374Z,35
2017-05-30T06:29:41.045Z,30
2017-05-30T06:30:41.707Z,25
2017-05-30T06:31:42.382Z,25
2017-05-30T06:32:43.047Z,30
2017-05-30T06:33:43.723Z,40
2017-05-30T06:34:44.427Z,55
2017-05-30T06:35:45.132Z,65
2017-05-30T06:36:45.818Z,75
2017-05-30T06:37:46.483Z,70
2017-05-30T06:38:47.184Z,60
2017-05-30T06:39:47.856Z,65
2017-05-30T06:40:48.537Z,65
2017-05-30T06:41:49.204Z,70
2017-05-30T06:42:49.881Z,70
2017-05-30T06:43:50.555Z,65
2017-05-30T06:44:51.230Z,55
2017-05-30T06:45:51.951Z,45
2017-05-30T06:46:52.635Z,50
2017-05-30T06:47:53.301Z,45
2017-05-30T06:48:53.958Z,45
2017-05-30T06:49:54.636Z,50
2017-05-30T06:50:55.312Z,55
2017-05-30T06:51:55.981Z,55
2017-05-30T06:52:56.659Z,80
2017-05-30T06:53:57.337Z,95
2017-05-30T06:54:58.002Z,100
2017-05-30T06:55:58.667Z,110
2017-05-30T06:56:59.355Z,115
2017-05-30T06:58:00.059Z,115
2017-05-30T06:59:00.779Z,115
2017-05-30T07:00:01.472Z,120
2017-05-30T07:01:02.142Z,120
2017-05-30T07:02:02.826Z,120
2017-05-30T07:03:03.487Z,120
2017-05-30T07:04:04.159Z,130
2017-05-30T07:05:05.122Z,145
2017-05-30T07:06:05.811Z,160
2017-05-30T07:07:06.486Z,175
2017-05-30T07:08:07.162Z,180
2017-05-30T07:09:08.209Z,190
2017-05-30T07:10:08.876Z,200
2017-05-30T07:11:09.971Z,205
2017-05-30T07:12:10.839Z,215
2017-05-30T07:13:11.520Z,210
2017-05-30T07:14:12.203Z,215
2017-05-30T07:15:12.872Z,215
2017-05-30T07:16:13.557Z,215
2017-05-30T07:17:14.251Z,215
2017-05-30T07:18:14.935Z,210
2017-05-30T07:19:15.954Z,210
2017-05-30T07:20:18.388Z,210
2017-05-30T07:21:20.966Z,210
2017-05-30T07:22:23.540Z,205
2017-05-30T07:23:24.215Z,205
2017-05-30T07:24:24.947Z,205
2017-05-30T07:25:25.641Z,210
2017-05-30T07:26:26.347Z,220
2017-05-30T07:27:27.039Z,230
2017-05-30T07:28:27.733Z,240
2017-05-30T07:29:28.399Z,245
2017-05-30T07:30:29.078Z,255
2017-05-30T07:31:29.764Z,255
2017-05-30T07:32:30.462Z,260
2017-05-30T07:33:31.196Z,265
2017-05-30T07:34:31.907Z,260
2017-05-30T07:35:32.573Z,260
2017-05-30T07:36:33.328Z,265
2017-05-30T07:37:34.021Z,275
2017-05-30T07:38:34.699Z,305
2017-05-30T07:39:35.393Z,360
2017-05-30T07:40:36.059Z,480
2017-05-30T07:41:36.750Z,860
2017-05-30T07:42:37.418Z,665
2017-05-30T07:43:38.241Z,1055
2017-05-30T07:44:38.953Z,1435
2017-05-30T07:45:39.624Z,1480
2017-05-30T07:46:40.302Z,1905
2017-05-30T07:47:40.992Z,2195
2017-05-30T07:48:41.690Z,2220
2017-05-30T07:49:42.376Z,2255
2017-05-30T07:50:43.209Z,2305
2017-05-30T07:51:43.881Z,1015
2017-05-30T07:52:44.554Z,1310
2017-05-30T07:53:45.272Z,1850
2017-05-30T07:54:45.950Z,1870
2017-05-30T07:55:46.623Z,2375
2017-05-30T07:56:47.303Z,1690
2017-05-30T07:57:47.986Z,2295
2017-05-30T07:58:48.679Z,2375
2017-05-30T07:59:49.360Z,2345
2017-05-30T08:00:50.052Z,2280
2017-05-30T08:01:50.742Z,2365
2017-05-30T08:02:51.437Z,2405
2017-05-30T08:03:52.120Z,2435
2017-05-30T08:04:52.809Z,2490
2017-05-30T08:05:53.492Z,2500
2017-05-30T08:06:54.166Z,2520
2017-05-30T08:07:55.677Z,2480
2017-05-30T08:08:56.345Z,2620
2017-05-30T08:09:57.026Z,2675
2017-05-30T08:10:57.735Z,2430
2017-05-30T08:11:58.449Z,2160
2017-05-30T08:12:59.132Z,1495
2017-05-30T08:13:59.819Z,2425
2017-05-30T08:15:00.523Z,2515
2017-05-30T08:16:01.210Z,2570
2017-05-30T08:17:01.934Z,2600
2017-05-30T08:18:02.656Z,2620
2017-05-30T08:19:03.353Z,2630
2017-05-30T08:20:04.080Z,2680
2017-05-30T08:21:04.756Z,2685
2017-05-30T08:22:05.430Z,2650
2017-05-30T08:23:06.152Z,2610
2017-05-30T08:24:06.821Z,2630
2017-05-30T08:25:07.517Z,2590
2017-05-30T08:26:08.203Z,2620
2017-05-30T08:27:08.924Z,2500
2017-05-30T08:28:09.609Z,2445
2017-05-30T08:29:10.299Z,2405
2017-05-30T08:30:10.972Z,2325
2017-05-30T08:31:11.676Z,2330
2017-05-30T08:32:12.375Z,2350
2017-05-30T08:33:13.077Z,2250
2017-05-30T08:34:13.764Z,2075
2017-05-30T08:35:14.456Z,2095
2017-05-30T08:36:15.148Z,1760
2017-05-30T08:37:15.828Z,1425
2017-05-30T08:38:16.517Z,1170
2017-05-30T08:39:17.198Z,1200
2017-05-30T08:40:17.889Z,1075
2017-05-30T08:41:18.568Z,1095
2017-05-30T08:42:19.253Z,1190
2017-05-30T08:43:19.936Z,1640
2017-05-30T08:44:20.617Z,1695
2017-05-30T08:45:21.337Z,1675
2017-05-30T08:46:22.046Z,1735
2017-05-30T08:47:22.737Z,1155
2017-05-30T08:48:23.433Z,1140
2017-05-30T08:49:24.109Z,1240
2017-05-30T08:50:24.780Z,815
2017-05-30T08:51:25.460Z,675
2017-05-30T08:52:26.141Z,825
2017-05-30T08:53:26.839Z,755
2017-05-30T08:54:27.534Z,705
2017-05-30T08:55:28.258Z,805
2017-05-30T08:56:28.936Z,825
2017-05-30T08:57:29.623Z,955
2017-05-30T08:58:30.317Z,790
2017-05-30T08:59:30.995Z,900
2017-05-30T09:00:31.670Z,740
2017-05-30T09:01:32.385Z,1045
2017-05-30T09:02:33.063Z,1015
2017-05-30T09:03:33.760Z,1670
2017-05-30T09:04:34.452Z,1410
2017-05-30T09:05:35.153Z,2355
2017-05-30T09:06:35.825Z,1225
2017-05-30T09:07:36.593Z,1505
2017-05-30T09:08:37.280Z,1295
2017-05-30T09:09:37.971Z,2120
2017-05-30T09:10:38.651Z,2575
2017-05-30T09:11:39.351Z,2720
2017-05-30T09:12:40.039Z,1925
2017-05-30T09:13:40.719Z,2660
2017-05-30T09:14:41.412Z,2740
2017-05-30T09:15:42.104Z,1580
2017-05-30T09:16:42.782Z,1990
2017-05-30T09:17:43.473Z,2730
2017-05-30T09:18:44.160Z,2635
2017-05-30T09:19:44.842Z,2215
2017-05-30T09:20:45.526Z,2395
2017-05-30T09:21:46.202Z,1115
2017-05-30T09:22:46.882Z,685
2017-05-30T09:23:47.558Z,640
2017-05-30T09:24:48.232Z,675
2017-05-30T09:25:48.929Z,755
2017-05-30T09:26:49.613Z,875
2017-05-30T09:27:50.327Z,745
2017-05-30T09:28:50.996Z,2345
2017-05-30T09:29:51.700Z,2660
2017-05-30T09:30:52.362Z,2710
2017-05-30T09:31:53.041Z,2370
2017-05-30T09:32:53.721Z,2260
2017-05-30T09:33:54.424Z,2135
2017-05-30T09:34:55.103Z,850
2017-05-30T09:35:55.790Z,555
2017-05-30T09:36:56.491Z,435
2017-05-30T09:37:57.177Z,425
2017-05-30T09:38:57.854Z,500
2017-05-30T09:39:58.550Z,880
2017-05-30T09:40:59.234Z,2595
2017-05-30T09:41:59.915Z,2800
2017-05-30T09:43:00.587Z,2425
2017-05-30T09:44:01.297Z,1105
2017-05-30T09:45:01.977Z,1065
2017-05-30T09:46:02.653Z,805
2017-05-30T09:47:03.335Z,815
2017-05-30T09:48:04.002Z,685
2017-05-30T09:49:04.684Z,1230
2017-05-30T09:50:05.343Z,640
2017-05-30T09:51:06.021Z,590
2017-05-30T09:52:06.745Z,610
2017-05-30T09:53:07.425Z,595
2017-05-30T09:54:08.127Z,595
2017-05-30T09:55:08.802Z,575
2017-05-30T09:56:09.485Z,530
2017-05-30T09:57:10.163Z,510
2017-05-30T09:58:10.849Z,550
2017-05-30T09:59:11.555Z,475
2017-05-30T10:00:12.239Z,430
2017-05-30T10:01:12.940Z,400
2017-05-30T10:02:13.621Z,460
2017-05-30T10:03:14.296Z,485
2017-05-30T10:04:14.974Z,430
2017-05-30T10:05:15.647Z,460
2017-05-30T10:06:16.325Z,610
2017-05-30T10:07:17.046Z,675
2017-05-30T10:08:17.744Z,690
2017-05-30T10:09:18.421Z,740
2017-05-30T10:10:19.110Z,895
2017-05-30T10:11:19.798Z,805
2017-05-30T10:12:20.481Z,665
2017-05-30T10:13:21.193Z,635
2017-05-30T10:14:21.819Z,640
2017-05-30T10:15:22.534Z,675
2017-05-30T10:16:23.211Z,610
2017-05-30T10:17:23.882Z,535
2017-05-30T10:18:24.567Z,570
2017-05-30T10:19:25.259Z,545
2017-05-30T10:20:25.946Z,480
2017-05-30T10:21:26.620Z,425
2017-05-30T10:22:27.311Z,455
2017-05-30T10:23:27.998Z,485
2017-05-30T10:24:28.671Z,540
2017-05-30T10:25:29.354Z,650
2017-05-30T10:26:30.066Z,765
2017-05-30T10:27:30.749Z,830
2017-05-30T10:28:31.424Z,865
2017-05-30T10:29:32.099Z,900
2017-05-30T10:30:32.826Z,825
2017-05-30T10:31:33.532Z,665
2017-05-30T10:32:34.284Z,910
2017-05-30T10:33:34.962Z,785
2017-05-30T10:34:35.705Z,710
2017-05-30T10:35:36.455Z,740
2017-05-30T10:36:37.132Z,680
2017-05-30T10:37:37.827Z,560
2017-05-30T10:38:38.512Z,545
2017-05-30T10:39:39.190Z,500
2017-05-30T10:40:39.884Z,570
2017-05-30T10:41:40.607Z,540
2017-05-30T10:42:41.307Z,540
2017-05-30T10:43:41.972Z,515
2017-05-30T10:44:42.652Z,430
2017-05-30T10:45:43.354Z,475
2017-05-30T10:46:44.043Z,635
2017-05-30T10:47:44.737Z,655
2017-05-30T10:48:45.415Z,590
2017-05-30T10:49:46.107Z,625
2017-05-30T10:50:46.805Z,695
2017-05-30T10:51:47.484Z,545
2017-05-30T10:52:48.195Z,460
2017-05-30T10:53:48.900Z,550
2017-05-30T10:54:49.582Z,650
2017-05-30T10:55:50.295Z,595
2017-05-30T10:56:51.043Z,590
2017-05-30T10:57:51.744Z,585
2017-05-30T10:58:52.438Z,580
2017-05-30T10:59:53.154Z,635
2017-05-30T11:00:53.833Z,545
2017-05-30T11:01:54.526Z,550
2017-05-30T11:02:55.228Z,650
2017-05-30T11:03:55.896Z,520
2017-05-30T11:04:56.589Z,500
2017-05-30T11:05:57.277Z,565
2017-05-30T11:06:57.975Z,610
2017-05-30T11:07:58.652Z,505
2017-05-30T11:08:59.334Z,555
2017-05-30T11:10:00.017Z,480
2017-05-30T11:11:00.699Z,425
2017-05-30T11:12:01.684Z,435
2017-05-30T11:13:02.373Z,610
2017-05-30T11:14:03.183Z,585
2017-05-30T11:15:04.005Z,585
2017-05-30T11:16:04.680Z,560
2017-05-30T11:17:05.424Z,620
2017-05-30T11:18:06.108Z,505
2017-05-30T11:19:06.924Z,540
2017-05-30T11:20:07.643Z,520
2017-05-30T11:21:08.323Z,575
2017-05-30T11:22:09.014Z,590
2017-05-30T11:23:09.738Z,535
2017-05-30T11:24:10.412Z,420
2017-05-30T11:25:11.105Z,360
2017-05-30T11:26:11.830Z,485
2017-05-30T11:27:12.550Z,460
2017-05-30T11:28:13.232Z,415
2017-05-30T11:29:13.914Z,345
2017-05-30T11:30:14.607Z,375
2017-05-30T11:31:15.335Z,335
2017-05-30T11:32:16.027Z,295
2017-05-30T11:33:16.710Z,335
2017-05-30T11:34:17.405Z,445
2017-05-30T11:35:18.090Z,490
2017-05-30T11:36:18.764Z,455
2017-05-30T11:37:19.491Z,425
2017-05-30T11:38:20.198Z,390
2017-05-30T11:39:20.889Z,370
2017-05-30T11:40:21.554Z,380
2017-05-30T11:41:22.250Z,405
2017-05-30T11:42:22.939Z,495
2017-05-30T11:43:23.630Z,490
2017-05-30T11:44:24.344Z,560
2017-05-30T11:45:25.014Z,625
2017-05-30T11:46:25.691Z,520
2017-05-30T11:47:26.365Z,495
2017-05-30T11:48:27.049Z,545
2017-05-30T11:49:27.758Z,550
2017-05-30T11:50:28.502Z,470
2017-05-30T11:51:29.202Z,425
2017-05-30T11:52:29.888Z,470
2017-05-30T11:53:30.610Z,455
2017-05-30T11:54:31.309Z,535
2017-05-30T11:55:31.994Z,485
2017-05-30T11:56:32.773Z,490
2017-05-30T11:57:33.623Z,450
2017-05-30T11:58:34.562Z,530
2017-05-30T11:59:35.248Z,570
2017-05-30T12:00:35.928Z,520
2017-05-30T12:01:36.604Z,475
2017-05-30T12:02:37.279Z,435
2017-05-30T12:03:37.979Z,385
2017-05-30T12:04:38.665Z,325
2017-05-30T12:05:39.368Z,245
2017-05-30T12:06:40.075Z,195
2017-05-30T12:07:40.752Z,175
2017-05-30T12:08:41.437Z,220
2017-05-30T12:09:42.128Z,275
2017-05-30T12:10:42.806Z,295
2017-05-30T12:11:43.522Z,410
2017-05-30T12:12:44.197Z,425
2017-05-30T12:13:44.957Z,395
2017-05-30T12:14:45.647Z,330
2017-05-30T12:15:46.332Z,365
2017-05-30T12:16:47.035Z,450
2017-05-30T12:17:47.737Z,430
2017-05-30T12:18:48.478Z,390
2017-05-30T12:19:49.269Z,465
2017-05-30T12:20:49.938Z,415
2017-05-30T12:21:50.624Z,350
2017-05-30T12:22:51.311Z,290
2017-05-30T12:23:51.985Z,235
2017-05-30T12:24:52.669Z,200
2017-05-30T12:25:53.372Z,195
2017-05-30T12:26:54.059Z,230
2017-05-30T12:27:54.739Z,525
2017-05-30T12:28:55.426Z,550
2017-05-30T12:29:56.117Z,535
2017-05-30T12:30:56.799Z,480
2017-05-30T12:31:57.624Z,530
2017-05-30T12:32:58.314Z,470
2017-05-30T12:33:58.997Z,395
2017-05-30T12:34:59.670Z,360
2017-05-30T12:36:00.353Z,405
2017-05-30T12:37:01.022Z,525
2017-05-30T12:38:01.711Z,455
2017-05-30T12:39:02.416Z,405
2017-05-30T12:40:03.097Z,375
2017-05-30T12:41:03.775Z,370
2017-05-30T12:42:04.486Z,335
2017-05-30T12:43:05.261Z,375
2017-05-30T12:44:05.939Z,440
2017-05-30T12:45:06.616Z,500
2017-05-30T12:46:07.326Z,535
2017-05-30T12:47:08.007Z,420
2017-05-30T12:48:08.717Z,405
2017-05-30T12:49:09.403Z,425
2017-05-30T12:50:10.086Z,535
2017-05-30T12:51:10.798Z,500
2017-05-30T12:52:11.504Z,425
2017-05-30T12:53:12.179Z,505
2017-05-30T12:54:12.872Z,520
2017-05-30T12:55:13.551Z,435
2017-05-30T12:56:14.249Z,400
2017-05-30T12:57:14.947Z,470
2017-05-30T12:58:15.642Z,470
2017-05-30T12:59:16.336Z,465
2017-05-30T13:00:17.067Z,445
2017-05-30T13:01:17.736Z,425
2017-05-30T13:02:18.407Z,420
2017-05-30T13:03:19.119Z,390
2017-05-30T13:04:19.907Z,415
2017-05-30T13:05:20.640Z,475
2017-05-30T13:06:21.305Z,400
2017-05-30T13:07:22.033Z,325
2017-05-30T13:08:22.765Z,335
2017-05-30T13:09:23.465Z,380
2017-05-30T13:10:24.157Z,395
2017-05-30T13:11:24.844Z,365
2017-05-30T13:12:25.630Z,385
2017-05-30T13:13:26.375Z,415
2017-05-30T13:14:27.083Z,395
2017-05-30T13:15:27.764Z,360
2017-05-30T13:16:28.443Z,365
2017-05-30T13:17:29.122Z,360
2017-05-30T13:18:29.809Z,350
2017-05-30T13:19:30.478Z,345
2017-05-30T13:20:31.159Z,325
2017-05-30T13:21:31.837Z,320
2017-05-30T13:22:32.544Z,320
2017-05-30T13:23:33.241Z,290
2017-05-30T13:24:33.953Z,255
2017-05-30T13:25:34.625Z,230
2017-05-30T13:26:35.313Z,245
2017-05-30T13:27:35.993Z,260
2017-05-30T13:28:36.695Z,240
2017-05-30T13:29:37.371Z,235
2017-05-30T13:30:38.061Z,365
2017-05-30T13:31:38.738Z,460
2017-05-30T13:32:39.405Z,450
2017-05-30T13:33:40.088Z,440
2017-05-30T13:34:40.776Z,485
2017-05-30T13:35:41.465Z,475
2017-05-30T13:36:42.143Z,420
2017-05-30T13:37:42.914Z,435
2017-05-30T13:38:43.624Z,355
2017-05-30T13:39:44.298Z,295
2017-05-30T13:40:44.982Z,310
2017-05-30T13:41:45.663Z,365
2017-05-30T13:42:46.357Z,425
2017-05-30T13:43:47.043Z,460
2017-05-30T13:44:47.734Z,425
2017-05-30T13:45:48.425Z,335
2017-05-30T13:46:49.133Z,300
2017-05-30T13:47:49.808Z,310
2017-05-30T13:48:50.511Z,305
2017-05-30T13:49:51.183Z,295
2017-05-30T13:50:51.861Z,260
2017-05-30T13:51:52.553Z,250
2017-05-30T13:52:53.249Z,270
2017-05-30T13:53:53.968Z,285
2017-05-30T13:54:54.645Z,310
2017-05-30T13:55:55.341Z,350
2017-05-30T13:56:56.158Z,350
2017-05-30T13:57:56.842Z,325
2017-05-30T13:58:57.531Z,340
2017-05-30T13:59:58.214Z,370
2017-05-30T14:00:58.895Z,375
2017-05-30T14:01:59.578Z,360
2017-05-30T14:03:00.277Z,305
2017-05-30T14:04:00.980Z,255
2017-05-30T14:05:01.665Z,215
2017-05-30T14:06:02.392Z,245
2017-05-30T14:07:03.075Z,340
2017-05-30T14:08:03.781Z,340
2017-05-30T14:09:04.466Z,340
2017-05-30T14:10:05.150Z,360
2017-05-30T14:11:05.819Z,365
2017-05-30T14:12:06.488Z,310
2017-05-30T14:13:07.173Z,370